createdAt,value
2023-04-24T00:01:37.980Z,11.50
2023-04-24T00:04:05.413Z,11.60
2023-04-24T00:06:35.222Z,11.60
2023-04-24T00:09:02.973Z,11.70
2023-04-24T00:11:30.778Z,11.80
2023-04-24T00:13:58.353Z,11.80
2023-04-24T00:16:25.807Z,11.90
2023-04-24T00:18:53.838Z,11.90
2023-04-24T00:21:21.492Z,11.90
2023-04-24T00:23:49.183Z,11.90
2023-04-24T00:26:16.276Z,11.90
2023-04-24T00:28:43.886Z,11.90
2023-04-24T00:31:11.203Z,12.00
2023-04-24T00:33:38.284Z,12.00
2023-04-24T00:36:05.535Z,12.00
2023-04-24T00:38:33.039Z,12.00
2023-04-24T00:41:00.897Z,12.10
2023-04-24T00:43:28.074Z,12.10
2023-04-24T00:45:56.000Z,12.10
2023-04-24T00:48:24.404Z,12.20
2023-04-24T00:50:51.624Z,12.20
2023-04-24T00:53:18.767Z,12.20
2023-04-24T00:55:46.360Z,12.20
2023-04-24T00:58:14.058Z,12.10
2023-04-24T01:00:41.893Z,12.10
2023-04-24T01:03:09.896Z,12.20
2023-04-24T01:05:37.517Z,12.10
2023-04-24T01:08:04.723Z,12.10
2023-04-24T01:10:34.280Z,11.90
2023-04-24T01:13:01.535Z,11.90
2023-04-24T01:15:28.688Z,11.80
2023-04-24T01:17:55.773Z,11.80
2023-04-24T01:20:23.734Z,11.90
2023-04-24T01:22:50.960Z,11.90
2023-04-24T01:25:18.295Z,11.90
2023-04-24T01:27:45.886Z,11.80
2023-04-24T01:30:14.019Z,11.60
2023-04-24T01:32:45.474Z,11.60
2023-04-24T01:35:12.805Z,11.60
2023-04-24T01:37:40.158Z,11.60
2023-04-24T01:40:08.779Z,11.60
2023-04-24T01:42:36.430Z,11.60
2023-04-24T01:45:06.421Z,11.70
2023-04-24T01:47:34.616Z,11.70
2023-04-24T01:50:01.769Z,11.70
2023-04-24T01:52:32.088Z,11.80
2023-04-24T01:55:01.725Z,11.90
2023-04-24T01:57:31.334Z,11.90
2023-04-24T01:59:58.578Z,11.90
2023-04-24T02:02:28.568Z,12.00
2023-04-24T02:04:58.252Z,12.10
2023-04-24T02:07:25.390Z,12.10
2023-04-24T02:09:52.530Z,12.20
2023-04-24T02:12:20.464Z,12.20
2023-04-24T02:14:47.636Z,12.20
2023-04-24T02:17:16.498Z,12.30
2023-04-24T02:19:44.098Z,12.30
2023-04-24T02:22:11.649Z,12.40
2023-04-24T02:24:39.843Z,12.40
2023-04-24T02:27:07.799Z,12.40
2023-04-24T02:29:35.004Z,12.40
2023-04-24T02:32:02.229Z,12.40
2023-04-24T02:34:29.377Z,12.40
2023-04-24T02:36:56.549Z,12.30
2023-04-24T02:39:23.698Z,12.40
2023-04-24T02:41:50.830Z,12.30
2023-04-24T02:44:18.408Z,12.40
2023-04-24T02:46:45.664Z,12.30
2023-04-24T02:49:13.153Z,12.20
2023-04-24T02:51:42.213Z,12.20
2023-04-24T02:54:11.064Z,12.00
2023-04-24T02:56:38.504Z,11.90
2023-04-24T02:59:07.477Z,11.80
2023-04-24T03:01:35.072Z,11.90
2023-04-24T03:04:03.044Z,11.90
2023-04-24T03:06:32.406Z,11.90
2023-04-24T03:08:59.613Z,11.90
2023-04-24T03:11:26.844Z,11.90
2023-04-24T03:13:53.969Z,11.90
2023-04-24T03:16:21.128Z,11.90
2023-04-24T03:18:48.235Z,12.00
2023-04-24T03:21:15.875Z,12.00
2023-04-24T03:23:44.003Z,12.10
2023-04-24T03:26:11.428Z,12.10
2023-04-24T03:28:45.396Z,12.10
2023-04-24T03:31:12.629Z,12.10
2023-04-24T03:33:39.767Z,12.00
2023-04-24T03:36:08.490Z,12.00
2023-04-24T03:38:39.782Z,11.90
2023-04-24T03:41:39.115Z,11.90
2023-04-24T03:44:13.178Z,12.10
2023-04-24T03:46:41.418Z,12.20
2023-04-24T03:49:08.658Z,12.40
2023-04-24T03:51:39.711Z,12.70
2023-04-24T03:54:19.556Z,12.80
2023-04-24T03:56:47.229Z,12.80
2023-04-24T03:59:14.520Z,12.90
2023-04-24T04:01:44.990Z,12.90
2023-04-24T04:04:15.689Z,12.90
2023-04-24T04:06:45.254Z,12.80
2023-04-24T04:09:13.379Z,12.80
2023-04-24T04:11:40.762Z,12.90
2023-04-24T04:14:07.852Z,13.00
2023-04-24T04:16:39.792Z,13.00
2023-04-24T04:19:08.458Z,13.00
2023-04-24T04:21:35.792Z,13.00
2023-04-24T04:24:25.333Z,13.00
2023-04-24T04:26:53.300Z,12.90
2023-04-24T04:29:28.012Z,13.00
2023-04-24T04:31:56.271Z,12.90
2023-04-24T04:34:24.303Z,12.90
2023-04-24T04:36:52.700Z,13.00
2023-04-24T04:39:45.826Z,13.00
2023-04-24T04:42:22.132Z,13.00
2023-04-24T04:44:51.454Z,13.10
2023-04-24T04:47:25.859Z,13.10
2023-04-24T04:49:54.726Z,13.10
2023-04-24T04:52:26.899Z,13.10
2023-04-24T04:55:02.050Z,13.20
2023-04-24T04:57:49.082Z,13.30
2023-04-24T05:00:16.752Z,13.20
2023-04-24T05:02:51.087Z,13.50
2023-04-24T05:05:19.092Z,13.50
2023-04-24T05:07:46.558Z,13.40
2023-04-24T05:10:13.818Z,13.60
2023-04-24T05:12:40.853Z,13.70
2023-04-24T05:15:08.932Z,13.70
2023-04-24T05:17:36.493Z,13.70
2023-04-24T05:20:06.470Z,13.80
2023-04-24T05:22:34.094Z,13.90
2023-04-24T05:25:01.472Z,13.80
2023-04-24T05:27:42.383Z,13.70
2023-04-24T05:30:15.431Z,13.80
2023-04-24T05:32:43.115Z,13.80
2023-04-24T05:35:10.229Z,13.90
2023-04-24T05:37:37.646Z,14.00
2023-04-24T05:40:06.494Z,14.10
2023-04-24T05:42:33.620Z,14.20
2023-04-24T05:45:00.771Z,14.20
2023-04-24T05:47:27.956Z,14.20
2023-04-24T05:49:55.771Z,14.30
2023-04-24T05:52:22.893Z,14.40
2023-04-24T05:54:51.906Z,14.30
2023-04-24T05:57:23.516Z,14.40
2023-04-24T05:59:57.673Z,14.60
2023-04-24T06:02:26.224Z,14.60
2023-04-24T06:04:53.960Z,14.50
2023-04-24T06:07:21.447Z,14.50
2023-04-24T06:09:48.632Z,14.70
2023-04-24T06:12:16.597Z,14.70
2023-04-24T06:15:04.948Z,14.60
2023-04-24T06:18:07.450Z,14.70
2023-04-24T06:20:35.248Z,14.70
2023-04-24T06:23:03.135Z,14.70
2023-04-24T06:25:30.254Z,14.70
2023-04-24T06:27:57.927Z,14.80
2023-04-24T06:30:25.147Z,14.60
2023-04-24T06:32:52.549Z,14.60
2023-04-24T06:35:19.645Z,14.70
2023-04-24T06:37:47.504Z,15.00
2023-04-24T06:40:14.828Z,14.90
2023-04-24T06:42:42.090Z,15.00
2023-04-24T06:45:09.968Z,15.20
2023-04-24T06:47:37.282Z,15.20
2023-04-24T06:50:04.869Z,15.40
2023-04-24T06:52:34.164Z,15.60
2023-04-24T06:55:03.713Z,15.70
2023-04-24T06:57:31.520Z,15.90
2023-04-24T06:59:58.616Z,15.90
2023-04-24T07:02:26.485Z,16.10
2023-04-24T07:04:55.272Z,16.10
2023-04-24T07:07:24.961Z,16.00
2023-04-24T07:09:52.509Z,15.80
2023-04-24T07:12:21.594Z,15.70
2023-04-24T07:14:49.097Z,15.30
2023-04-24T07:17:16.637Z,15.10
2023-04-24T07:19:44.311Z,15.20
2023-04-24T07:22:17.704Z,15.40
2023-04-24T07:24:45.967Z,15.20
2023-04-24T07:27:13.247Z,15.30
2023-04-24T07:29:41.487Z,15.40
2023-04-24T07:32:09.088Z,15.50
2023-04-24T07:34:39.197Z,15.70
2023-04-24T07:37:06.422Z,15.90
2023-04-24T07:39:33.491Z,15.70
2023-04-24T07:42:00.882Z,16.00
2023-04-24T07:44:28.077Z,16.20
2023-04-24T07:46:55.702Z,16.60
2023-04-24T07:49:22.815Z,15.90
2023-04-24T07:51:51.219Z,15.70
2023-04-24T07:54:18.445Z,15.70
2023-04-24T07:56:46.200Z,15.60
2023-04-24T07:59:13.378Z,15.90
2023-04-24T08:01:40.571Z,16.20
2023-04-24T08:04:07.968Z,16.50
2023-04-24T08:06:35.696Z,16.80
2023-04-24T08:09:02.852Z,17.10
2023-04-24T08:11:29.920Z,16.30
2023-04-24T08:13:57.212Z,16.80
2023-04-24T08:16:27.492Z,17.40
2023-04-24T08:18:54.720Z,17.60
2023-04-24T08:21:22.518Z,17.30
2023-04-24T08:23:49.622Z,16.70
2023-04-24T08:26:16.726Z,16.90
2023-04-24T08:28:44.001Z,16.90
2023-04-24T08:31:11.250Z,16.60
2023-04-24T08:33:38.364Z,16.50
2023-04-24T08:36:07.063Z,16.50
2023-04-24T08:38:34.957Z,16.50
2023-04-24T08:41:03.058Z,16.60
2023-04-24T08:43:30.710Z,16.50
2023-04-24T08:45:58.898Z,16.30
2023-04-24T08:48:31.659Z,16.30
2023-04-24T08:51:00.555Z,16.00
2023-04-24T08:53:28.389Z,15.90
2023-04-24T08:55:57.821Z,16.20
2023-04-24T08:58:28.636Z,16.50
2023-04-24T09:00:56.633Z,16.90
2023-04-24T09:03:24.805Z,16.50
2023-04-24T09:05:55.375Z,16.60
2023-04-24T09:08:26.863Z,16.80
2023-04-24T09:10:54.327Z,17.20
2023-04-24T09:13:21.922Z,17.50
2023-04-24T09:15:49.272Z,17.80
2023-04-24T09:18:16.406Z,17.10
2023-04-24T09:21:03.454Z,17.40
2023-04-24T09:23:32.839Z,17.70
2023-04-24T09:26:02.575Z,18.00
2023-04-24T09:28:36.180Z,17.90
2023-04-24T09:31:15.762Z,18.10
2023-04-24T09:34:06.409Z,17.40
2023-04-24T09:36:40.060Z,17.50
2023-04-24T09:39:12.038Z,17.60
2023-04-24T09:41:55.563Z,17.60
2023-04-24T09:44:25.033Z,17.30
2023-04-24T09:46:57.816Z,17.80
2023-04-24T09:49:26.899Z,17.90
2023-04-24T09:52:11.362Z,17.60
2023-04-24T09:54:41.232Z,17.50
2023-04-24T09:57:10.280Z,17.80
2023-04-24T09:59:45.539Z,17.60
2023-04-24T10:02:22.512Z,17.50
2023-04-24T10:05:01.458Z,17.30
2023-04-24T10:07:29.143Z,16.90
2023-04-24T10:09:56.694Z,17.10
2023-04-24T10:12:24.830Z,17.20
2023-04-24T10:14:52.374Z,17.60
2023-04-24T10:17:21.910Z,17.50
2023-04-24T10:19:49.520Z,17.60
2023-04-24T10:22:18.947Z,17.80
2023-04-24T10:24:48.524Z,17.60
2023-04-24T10:27:16.580Z,18.10
2023-04-24T10:29:46.037Z,18.70
2023-04-24T10:32:13.117Z,19.30
2023-04-24T10:34:40.332Z,19.50
2023-04-24T10:37:07.547Z,18.50
2023-04-24T10:39:34.876Z,18.80
2023-04-24T10:42:02.080Z,19.20
2023-04-24T10:44:38.001Z,19.40
2023-04-24T10:47:05.461Z,19.00
2023-04-24T10:49:33.332Z,18.10
2023-04-24T10:52:06.776Z,17.60
2023-04-24T10:54:46.822Z,17.20
2023-04-24T10:57:23.044Z,17.80
2023-04-24T11:00:10.637Z,17.30
2023-04-24T11:02:40.187Z,17.70
2023-04-24T11:05:08.529Z,17.90
2023-04-24T11:08:14.455Z,17.70
2023-04-24T11:10:56.301Z,17.20
2023-04-24T11:13:26.176Z,17.40
2023-04-24T11:16:33.887Z,16.80
2023-04-24T11:19:06.932Z,16.60
2023-04-24T11:21:48.175Z,16.40
2023-04-24T11:24:29.839Z,16.10
2023-04-24T11:27:05.711Z,16.20
2023-04-24T11:30:02.141Z,16.30
2023-04-24T11:32:41.619Z,16.60
2023-04-24T11:35:17.761Z,17.30
2023-04-24T11:37:49.482Z,18.00
2023-04-24T11:40:26.600Z,18.20
2023-04-24T11:42:57.590Z,19.30
2023-04-24T11:45:30.527Z,20.40
2023-04-24T11:47:58.390Z,20.90
2023-04-24T11:50:28.946Z,20.90
2023-04-24T11:52:56.943Z,20.20
2023-04-24T11:55:27.816Z,19.90
2023-04-24T11:57:59.582Z,19.10
2023-04-24T12:00:34.713Z,19.70
2023-04-24T12:03:13.214Z,19.50
2023-04-24T12:05:41.536Z,17.60
2023-04-24T12:08:08.831Z,18.40
2023-04-24T12:10:37.721Z,18.60
2023-04-24T12:13:05.081Z,18.20
2023-04-24T12:15:32.307Z,17.80
2023-04-24T12:18:00.737Z,17.50
2023-04-24T12:20:33.689Z,17.20
2023-04-24T12:23:02.654Z,17.00
2023-04-24T12:25:33.189Z,16.90
2023-04-24T12:28:06.794Z,17.10
2023-04-24T12:30:45.836Z,17.80
2023-04-24T12:33:13.284Z,20.20
2023-04-24T12:35:42.147Z,22.30
2023-04-24T12:38:18.882Z,21.10
2023-04-24T12:40:46.060Z,19.60
2023-04-24T12:43:18.949Z,19.00
2023-04-24T12:45:50.673Z,19.30
2023-04-24T12:48:17.853Z,18.70
2023-04-24T12:50:46.794Z,18.50
2023-04-24T12:53:15.500Z,18.00
2023-04-24T12:55:42.769Z,18.10
2023-04-24T12:58:09.917Z,18.20
2023-04-24T13:00:37.550Z,18.60
2023-04-24T13:03:05.046Z,18.60
2023-04-24T13:05:32.348Z,19.00
2023-04-24T13:07:59.528Z,18.90
2023-04-24T13:10:26.764Z,19.60
2023-04-24T13:12:53.869Z,19.80
2023-04-24T13:15:21.152Z,21.30
2023-04-24T13:17:48.429Z,22.80
2023-04-24T13:20:15.727Z,22.90
2023-04-24T13:22:42.827Z,23.60
2023-04-24T13:25:11.287Z,23.70
2023-04-24T13:27:40.738Z,23.90
2023-04-24T13:30:09.053Z,22.50
2023-04-24T13:32:36.603Z,23.50
2023-04-24T13:35:04.153Z,23.60
2023-04-24T13:37:31.267Z,24.50
2023-04-24T13:39:58.412Z,24.70
2023-04-24T13:42:25.669Z,24.00
2023-04-24T13:44:55.045Z,24.00
2023-04-24T13:47:22.246Z,22.70
2023-04-24T13:49:49.637Z,21.60
2023-04-24T13:52:16.783Z,21.30
2023-04-24T13:54:43.828Z,21.80
2023-04-24T13:57:10.876Z,22.60
2023-04-24T13:59:38.230Z,22.20
2023-04-24T14:02:05.462Z,22.40
2023-04-24T14:04:32.785Z,23.20
2023-04-24T14:07:00.089Z,24.40
2023-04-24T14:09:27.213Z,24.60
2023-04-24T14:11:54.297Z,24.70
2023-04-24T14:14:21.564Z,24.80
2023-04-24T14:16:48.677Z,26.30
2023-04-24T14:19:15.734Z,26.30
2023-04-24T14:21:42.877Z,25.40
2023-04-24T14:24:10.325Z,22.80
2023-04-24T14:26:37.523Z,21.40
2023-04-24T14:29:14.242Z,22.70
2023-04-24T14:31:42.933Z,24.50
2023-04-24T14:34:10.569Z,25.20
2023-04-24T14:36:37.862Z,24.10
2023-04-24T14:39:08.472Z,23.60
2023-04-24T14:41:37.046Z,24.10
2023-04-24T14:44:05.100Z,25.90
2023-04-24T14:46:32.562Z,22.90
2023-04-24T14:49:00.021Z,23.60
2023-04-24T14:51:28.089Z,23.90
2023-04-24T14:53:55.432Z,23.20
2023-04-24T14:56:22.578Z,24.40
2023-04-24T14:58:50.316Z,23.40
2023-04-24T15:01:18.079Z,22.40
2023-04-24T15:03:46.135Z,22.90
2023-04-24T15:06:13.702Z,23.30
2023-04-24T15:08:40.889Z,23.70
2023-04-24T15:11:08.012Z,23.30
2023-04-24T15:13:35.130Z,23.60
2023-04-24T15:16:03.102Z,22.20
2023-04-24T15:18:30.502Z,21.80
2023-04-24T15:20:57.920Z,20.90
2023-04-24T15:23:24.999Z,20.40
2023-04-24T15:25:52.142Z,19.80
2023-04-24T15:28:19.265Z,20.20
2023-04-24T15:30:46.349Z,19.00
2023-04-24T15:33:13.659Z,19.10
2023-04-24T15:35:41.829Z,18.30
2023-04-24T15:38:09.500Z,18.40
2023-04-24T15:40:38.340Z,18.70
2023-04-24T15:43:05.606Z,18.70
2023-04-24T15:45:33.914Z,19.10
2023-04-24T15:48:01.688Z,18.80
2023-04-24T15:50:29.287Z,18.10
2023-04-24T15:52:56.412Z,17.50
2023-04-24T15:55:23.543Z,17.00
2023-04-24T15:57:50.733Z,16.70
2023-04-24T16:00:18.494Z,16.60
2023-04-24T16:02:46.196Z,16.40
2023-04-24T16:05:13.515Z,16.30
2023-04-24T16:07:40.579Z,16.50
2023-04-24T16:10:08.465Z,16.50
2023-04-24T16:12:35.629Z,16.30
2023-04-24T16:15:03.393Z,16.50
2023-04-24T16:17:30.523Z,16.80
2023-04-24T16:19:57.760Z,16.80
2023-04-24T16:22:24.959Z,16.50
2023-04-24T16:24:52.007Z,16.40
2023-04-24T16:27:19.194Z,16.40
2023-04-24T16:29:46.319Z,16.30
2023-04-24T16:32:13.405Z,16.80
2023-04-24T16:34:40.496Z,16.90
2023-04-24T16:37:07.615Z,16.70
2023-04-24T16:39:35.637Z,16.60
2023-04-24T16:42:03.033Z,16.10
2023-04-24T16:44:31.842Z,15.90
2023-04-24T16:46:59.124Z,15.90
2023-04-24T16:49:30.923Z,15.80
2023-04-24T16:51:58.611Z,16.20
2023-04-24T16:54:26.153Z,17.20
2023-04-24T16:56:54.647Z,16.60
2023-04-24T16:59:22.128Z,16.80
2023-04-24T17:01:49.997Z,17.00
2023-04-24T17:04:17.174Z,17.00
2023-04-24T17:06:44.363Z,16.90
2023-04-24T17:09:13.237Z,17.20
2023-04-24T17:11:40.280Z,18.10
2023-04-24T17:14:07.360Z,17.70
2023-04-24T17:16:34.817Z,18.10
2023-04-24T17:19:01.982Z,19.30
2023-04-24T17:21:29.273Z,19.10
2023-04-24T17:23:56.309Z,17.50
2023-04-24T17:26:23.533Z,16.60
2023-04-24T17:28:54.442Z,16.40
2023-04-24T17:31:21.765Z,15.60
2023-04-24T17:33:48.911Z,15.00
2023-04-24T17:36:16.331Z,14.70
2023-04-24T17:38:43.408Z,14.50
2023-04-24T17:41:10.449Z,14.30
2023-04-24T17:43:37.519Z,14.20
2023-04-24T17:46:04.766Z,14.30
2023-04-24T17:48:31.916Z,14.40
2023-04-24T17:50:58.970Z,14.30
2023-04-24T17:53:26.082Z,14.20
2023-04-24T17:55:54.331Z,13.80
2023-04-24T17:58:21.450Z,13.70
2023-04-24T18:00:48.605Z,13.80
2023-04-24T18:03:15.862Z,13.90
2023-04-24T18:05:43.245Z,13.80
2023-04-24T18:08:10.412Z,13.80
2023-04-24T18:10:37.570Z,13.80
2023-04-24T18:13:05.714Z,13.70
2023-04-24T18:15:33.034Z,13.60
2023-04-24T18:18:00.475Z,13.30
2023-04-24T18:20:27.768Z,13.00
2023-04-24T18:22:55.070Z,13.00
2023-04-24T18:25:26.751Z,12.90
2023-04-24T18:27:55.840Z,12.70
2023-04-24T18:30:24.292Z,12.50
2023-04-24T18:32:53.422Z,12.30
2023-04-24T18:35:21.635Z,12.30
2023-04-24T18:37:49.519Z,12.30
2023-04-24T18:40:17.865Z,12.20
2023-04-24T18:42:45.252Z,12.20
2023-04-24T18:45:14.602Z,12.20
2023-04-24T18:47:42.924Z,12.20
2023-04-24T18:50:11.136Z,12.20
2023-04-24T18:52:38.378Z,12.10
2023-04-24T18:55:07.096Z,12.00
2023-04-24T18:57:34.592Z,12.00
2023-04-24T19:00:01.847Z,12.10
2023-04-24T19:02:29.232Z,12.00
2023-04-24T19:04:56.500Z,12.00
2023-04-24T19:07:23.655Z,12.00
2023-04-24T19:09:50.713Z,11.90
2023-04-24T19:12:18.056Z,12.00
2023-04-24T19:14:46.857Z,12.10
2023-04-24T19:17:14.041Z,12.10
2023-04-24T19:19:41.185Z,12.10
2023-04-24T19:22:08.289Z,11.90
2023-04-24T19:24:35.512Z,11.90
2023-04-24T19:27:02.679Z,11.90
2023-04-24T19:29:29.906Z,11.80
2023-04-24T19:31:58.669Z,11.80
2023-04-24T19:34:26.441Z,11.70
2023-04-24T19:36:53.687Z,11.60
2023-04-24T19:39:21.090Z,11.60
2023-04-24T19:41:48.280Z,11.40
2023-04-24T19:44:17.283Z,11.40
2023-04-24T19:46:44.776Z,11.30
2023-04-24T19:49:12.634Z,11.20
2023-04-24T19:51:39.959Z,11.20
2023-04-24T19:54:07.587Z,11.20
2023-04-24T19:56:34.988Z,11.10
2023-04-24T19:59:02.198Z,11.10
2023-04-24T20:01:29.608Z,11.10
2023-04-24T20:03:56.942Z,11.10
2023-04-24T20:06:24.414Z,11.10
2023-04-24T20:08:51.766Z,11.00
2023-04-24T20:11:19.091Z,11.00
2023-04-24T20:13:46.321Z,11.00
2023-04-24T20:16:13.502Z,11.10
2023-04-24T20:18:40.933Z,11.10
2023-04-24T20:21:09.803Z,11.20
2023-04-24T20:23:36.915Z,11.10
2023-04-24T20:26:05.024Z,11.10
2023-04-24T20:28:32.191Z,11.10
2023-04-24T20:31:00.004Z,11.20
2023-04-24T20:33:28.534Z,11.20
2023-04-24T20:35:55.983Z,11.10
2023-04-24T20:38:24.425Z,11.00
2023-04-24T20:43:24.690Z,10.80
2023-04-24T20:45:53.933Z,10.80
2023-04-24T20:48:21.090Z,10.80
2023-04-24T20:50:50.181Z,10.70
2023-04-24T20:53:17.190Z,10.60
2023-04-24T20:55:44.284Z,10.60
2023-04-24T20:58:11.490Z,10.60
2023-04-24T21:00:39.547Z,10.60
2023-04-24T21:03:06.717Z,10.50
2023-04-24T21:05:34.000Z,10.40
2023-04-24T21:08:01.199Z,10.40
2023-04-24T21:10:28.337Z,10.30
2023-04-24T21:12:55.457Z,10.30
2023-04-24T21:15:22.649Z,10.40
2023-04-24T21:17:49.842Z,10.50
2023-04-24T21:20:16.943Z,10.50
2023-04-24T21:22:44.214Z,10.50
2023-04-24T21:25:11.684Z,10.60
2023-04-24T21:27:38.929Z,10.60
2023-04-24T21:30:07.494Z,10.70
2023-04-24T21:32:34.749Z,10.60
2023-04-24T21:35:01.888Z,10.60
2023-04-24T21:37:29.069Z,10.60
2023-04-24T21:39:56.117Z,10.50
2023-04-24T21:42:23.274Z,10.40
2023-04-24T21:44:50.366Z,10.40
2023-04-24T21:47:17.419Z,10.40
2023-04-24T21:49:44.513Z,10.40
2023-04-24T21:52:11.593Z,10.40
2023-04-24T21:54:38.658Z,10.40
2023-04-24T21:57:06.084Z,10.40
2023-04-24T21:59:34.757Z,10.30
2023-04-24T22:02:01.892Z,10.30
2023-04-24T22:04:29.161Z,10.30
2023-04-24T22:06:56.450Z,10.20
2023-04-24T22:09:23.527Z,10.20
2023-04-24T22:11:50.977Z,10.10
2023-04-24T22:14:18.432Z,10.10
2023-04-24T22:16:47.813Z,10.00
2023-04-24T22:19:15.003Z,9.80
2023-04-24T22:21:42.550Z,9.70
2023-04-24T22:24:09.796Z,9.50
2023-04-24T22:26:36.909Z,9.50
2023-04-24T22:29:04.113Z,9.40
2023-04-24T22:31:31.397Z,9.30
2023-04-24T22:33:58.504Z,9.30
2023-04-24T22:36:26.273Z,9.30
2023-04-24T22:38:53.485Z,9.10
2023-04-24T22:41:22.514Z,9.10
2023-04-24T22:43:50.428Z,9.10
2023-04-24T22:46:17.918Z,9.00
2023-04-24T22:48:45.924Z,9.00
2023-04-24T22:51:13.151Z,9.00
2023-04-24T22:53:40.392Z,9.00
2023-04-24T22:56:07.773Z,9.00
2023-04-24T22:58:34.931Z,8.90
2023-04-24T23:01:02.175Z,8.90
2023-04-24T23:03:29.490Z,8.80
2023-04-24T23:05:56.615Z,8.70
2023-04-24T23:08:23.728Z,8.70
2023-04-24T23:10:50.855Z,8.70
2023-04-24T23:13:17.963Z,8.60
2023-04-24T23:15:45.360Z,8.50
2023-04-24T23:18:12.507Z,8.50
2023-04-24T23:20:39.979Z,8.50
2023-04-24T23:23:07.267Z,8.50
2023-04-24T23:25:34.866Z,8.50
2023-04-24T23:28:01.975Z,8.60
2023-04-24T23:30:29.852Z,8.60
2023-04-24T23:32:57.022Z,8.60
2023-04-24T23:35:24.436Z,8.60
2023-04-24T23:37:51.504Z,8.70
2023-04-24T23:40:18.666Z,8.60
2023-04-24T23:42:51.491Z,8.70
2023-04-24T23:45:23.732Z,8.70
2023-04-24T23:47:51.216Z,8.80
2023-04-24T23:50:18.503Z,8.80
2023-04-24T23:52:45.738Z,8.80
2023-04-24T23:55:13.239Z,8.90
2023-04-24T23:57:40.377Z,9.00
